Terminal Aerodrome Forecast
Issued by NWS

Home | Current Version | Previous Version | Text Only | Print | Product List | Glossary On
Versions: 1 2 3 4 5 6 7 8 9 10 11 12 13 14 15 16
000
FTUS42 KMLB 210520
TAFSFB
TAF
KSFB 210520Z 2106/2206 09007KT P6SM SCT050 SCT250
     FM211000 05004KT P6SM BKN050
     FM211400 10007KT P6SM VCSH BKN050 OVC080
     FM211700 11008KT 5SM -RA BKN035 OVC050
      TEMPO 2118/2122 3SM RA BR BKN020 OVC040
     FM220000 06004KT P6SM VCSH SCT040 BKN080=

USA.gov is the U.S. government's official web portal to all federal, state and local government web resources and services.